sensor_id;sensor_type;location;lat;lon;timestamp;P1;durP1;ratioP1;P2;durP2;ratioP2
48795;SDS011;34607;48.520;-1.330;2023-09-18T07:07:33;8.45;;;5.28;;
48795;SDS011;34607;48.520;-1.330;2023-09-18T07:10:00;7.28;;;4.72;;
48795;SDS011;34607;48.520;-1.330;2023-09-18T07:12:28;6.63;;;5.13;;
48795;SDS011;34607;48.520;-1.330;2023-09-18T07:14:55;8.15;;;5.60;;
48795;SDS011;34607;48.520;-1.330;2023-09-18T07:17:22;8.38;;;5.10;;
48795;SDS011;34607;48.520;-1.330;2023-09-18T07:19:49;6.70;;;5.20;;
48795;SDS011;34607;48.520;-1.330;2023-09-18T07:22:16;8.43;;;5.47;;
48795;SDS011;34607;48.520;-1.330;2023-09-18T07:24:44;5.47;;;4.90;;
48795;SDS011;34607;48.520;-1.330;2023-09-18T07:27:11;6.72;;;5.30;;
48795;SDS011;34607;48.520;-1.330;2023-09-18T07:29:38;5.85;;;4.75;;
48795;SDS011;34607;48.520;-1.330;2023-09-18T07:32:05;5.85;;;4.30;;
48795;SDS011;34607;48.520;-1.330;2023-09-18T07:34:34;5.25;;;3.80;;
48795;SDS011;34607;48.520;-1.330;2023-09-18T07:37:02;5.28;;;4.03;;
48795;SDS011;34607;48.520;-1.330;2023-09-18T07:39:29;7.22;;;3.47;;
48795;SDS011;34607;48.520;-1.330;2023-09-18T07:41:58;6.28;;;4.00;;
48795;SDS011;34607;48.520;-1.330;2023-09-18T07:44:25;8.25;;;3.85;;
48795;SDS011;34607;48.520;-1.330;2023-09-18T07:46:52;5.72;;;3.22;;
48795;SDS011;34607;48.520;-1.330;2023-09-18T07:49:19;6.25;;;3.83;;
48795;SDS011;34607;48.520;-1.330;2023-09-18T07:51:46;6.53;;;3.67;;
48795;SDS011;34607;48.520;-1.330;2023-09-18T07:54:14;5.43;;;3.75;;
48795;SDS011;34607;48.520;-1.330;2023-09-18T07:56:42;5.40;;;3.67;;
48795;SDS011;34607;48.520;-1.330;2023-09-18T07:59:10;6.72;;;4.05;;
48795;SDS011;34607;48.520;-1.330;2023-09-18T08:01:39;5.43;;;3.42;;
48795;SDS011;34607;48.520;-1.330;2023-09-18T08:04:07;8.25;;;3.97;;
48795;SDS011;34607;48.520;-1.330;2023-09-18T08:06:34;6.53;;;3.72;;
48795;SDS011;34607;48.520;-1.330;2023-09-18T08:09:03;6.25;;;3.45;;
48795;SDS011;34607;48.520;-1.330;2023-09-18T08:11:30;7.90;;;4.38;;
48795;SDS011;34607;48.520;-1.330;2023-09-18T08:13:58;6.95;;;3.83;;
48795;SDS011;34607;48.520;-1.330;2023-09-18T08:16:26;4.80;;;3.42;;
48795;SDS011;34607;48.520;-1.330;2023-09-18T08:18:54;9.75;;;4.13;;
48795;SDS011;34607;48.520;-1.330;2023-09-18T08:21:21;6.10;;;3.72;;
48795;SDS011;34607;48.520;-1.330;2023-09-18T08:23:49;7.28;;;4.07;;
48795;SDS011;34607;48.520;-1.330;2023-09-18T08:26:16;4.65;;;3.22;;
48795;SDS011;34607;48.520;-1.330;2023-09-18T08:28:43;3.45;;;3.03;;
48795;SDS011;34607;48.520;-1.330;2023-09-18T08:31:10;7.60;;;4.30;;
48795;SDS011;34607;48.520;-1.330;2023-09-18T08:33:39;4.20;;;3.33;;
48795;SDS011;34607;48.520;-1.330;2023-09-18T08:36:06;4.35;;;3.15;;
48795;SDS011;34607;48.520;-1.330;2023-09-18T08:38:33;5.93;;;3.50;;
48795;SDS011;34607;48.520;-1.330;2023-09-18T08:41:00;4.97;;;3.42;;
48795;SDS011;34607;48.520;-1.330;2023-09-18T08:43:28;5.35;;;3.05;;
48795;SDS011;34607;48.520;-1.330;2023-09-18T08:45:57;6.03;;;3.15;;
48795;SDS011;34607;48.520;-1.330;2023-09-18T08:48:27;4.88;;;3.45;;
48795;SDS011;34607;48.520;-1.330;2023-09-18T08:51:01;8.50;;;3.33;;
48795;SDS011;34607;48.520;-1.330;2023-09-18T08:53:30;4.82;;;3.47;;
48795;SDS011;34607;48.520;-1.330;2023-09-18T08:55:58;5.53;;;3.00;;
48795;SDS011;34607;48.520;-1.330;2023-09-18T08:58:27;5.47;;;2.65;;
48795;SDS011;34607;48.520;-1.330;2023-09-18T09:00:59;6.20;;;3.28;;
48795;SDS011;34607;48.520;-1.330;2023-09-18T09:03:28;7.03;;;2.35;;
48795;SDS011;34607;48.520;-1.330;2023-09-18T09:05:56;4.78;;;2.28;;
48795;SDS011;34607;48.520;-1.330;2023-09-18T09:08:28;6.57;;;2.65;;
48795;SDS011;34607;48.520;-1.330;2023-09-18T09:10:56;5.07;;;2.72;;
48795;SDS011;34607;48.520;-1.330;2023-09-18T09:13:24;4.88;;;2.30;;
48795;SDS011;34607;48.520;-1.330;2023-09-18T09:15:52;6.35;;;2.53;;
48795;SDS011;34607;48.520;-1.330;2023-09-18T09:18:21;3.63;;;1.80;;
48795;SDS011;34607;48.520;-1.330;2023-09-18T09:20:52;6.85;;;2.70;;
48795;SDS011;34607;48.520;-1.330;2023-09-18T09:23:23;5.65;;;2.25;;
48795;SDS011;34607;48.520;-1.330;2023-09-18T09:25:51;7.40;;;3.00;;
48795;SDS011;34607;48.520;-1.330;2023-09-18T09:28:28;5.78;;;2.13;;
48795;SDS011;34607;48.520;-1.330;2023-09-18T09:31:01;2.75;;;2.30;;
48795;SDS011;34607;48.520;-1.330;2023-09-18T09:33:28;9.18;;;2.45;;
48795;SDS011;34607;48.520;-1.330;2023-09-18T09:35:56;4.60;;;1.65;;
48795;SDS011;34607;48.520;-1.330;2023-09-18T09:38:28;4.20;;;2.10;;
48795;SDS011;34607;48.520;-1.330;2023-09-18T09:40:59;6.15;;;2.17;;
48795;SDS011;34607;48.520;-1.330;2023-09-18T09:43:26;5.10;;;2.35;;
48795;SDS011;34607;48.520;-1.330;2023-09-18T09:45:57;6.40;;;2.40;;
48795;SDS011;34607;48.520;-1.330;2023-09-18T09:48:25;3.42;;;1.88;;
48795;SDS011;34607;48.520;-1.330;2023-09-18T09:50:52;7.22;;;3.05;;
48795;SDS011;34607;48.520;-1.330;2023-09-18T09:56:11;5.03;;;2.58;;
48795;SDS011;34607;48.520;-1.330;2023-09-18T09:58:39;3.28;;;2.28;;
48795;SDS011;34607;48.520;-1.330;2023-09-18T10:01:09;5.63;;;2.70;;
48795;SDS011;34607;48.520;-1.330;2023-09-18T10:03:43;5.00;;;2.15;;
48795;SDS011;34607;48.520;-1.330;2023-09-18T10:06:12;9.45;;;2.92;;
48795;SDS011;34607;48.520;-1.330;2023-09-18T10:08:40;5.47;;;2.45;;
48795;SDS011;34607;48.520;-1.330;2023-09-18T10:11:08;4.43;;;2.42;;
48795;SDS011;34607;48.520;-1.330;2023-09-18T10:16:13;5.75;;;2.90;;
48795;SDS011;34607;48.520;-1.330;2023-09-18T10:18:48;3.70;;;2.30;;
48795;SDS011;34607;48.520;-1.330;2023-09-18T10:21:25;5.85;;;2.63;;
48795;SDS011;34607;48.520;-1.330;2023-09-18T10:23:59;4.97;;;2.90;;
48795;SDS011;34607;48.520;-1.330;2023-09-18T10:26:35;4.63;;;2.90;;
48795;SDS011;34607;48.520;-1.330;2023-09-18T10:29:10;3.40;;;2.78;;
48795;SDS011;34607;48.520;-1.330;2023-09-18T10:31:39;3.95;;;2.85;;
48795;SDS011;34607;48.520;-1.330;2023-09-18T10:34:08;5.57;;;3.25;;
48795;SDS011;34607;48.520;-1.330;2023-09-18T10:36:37;4.53;;;3.25;;
48795;SDS011;34607;48.520;-1.330;2023-09-18T10:39:06;6.38;;;2.85;;
48795;SDS011;34607;48.520;-1.330;2023-09-18T10:41:38;4.55;;;2.70;;
48795;SDS011;34607;48.520;-1.330;2023-09-18T10:44:07;5.40;;;3.30;;
48795;SDS011;34607;48.520;-1.330;2023-09-18T10:46:35;7.25;;;3.55;;
48795;SDS011;34607;48.520;-1.330;2023-09-18T10:49:02;6.50;;;3.67;;
48795;SDS011;34607;48.520;-1.330;2023-09-18T10:51:31;4.50;;;2.50;;
48795;SDS011;34607;48.520;-1.330;2023-09-18T10:53:59;4.38;;;2.63;;
48795;SDS011;34607;48.520;-1.330;2023-09-18T10:56:28;5.22;;;2.92;;
48795;SDS011;34607;48.520;-1.330;2023-09-18T10:58:57;4.97;;;2.85;;
48795;SDS011;34607;48.520;-1.330;2023-09-18T11:01:27;5.72;;;3.22;;
48795;SDS011;34607;48.520;-1.330;2023-09-18T11:03:59;4.95;;;2.83;;
48795;SDS011;34607;48.520;-1.330;2023-09-18T11:06:27;4.88;;;2.63;;
48795;SDS011;34607;48.520;-1.330;2023-09-18T11:08:59;3.55;;;2.63;;
48795;SDS011;34607;48.520;-1.330;2023-09-18T11:11:29;4.80;;;2.70;;
48795;SDS011;34607;48.520;-1.330;2023-09-18T11:13:58;5.05;;;2.47;;
48795;SDS011;34607;48.520;-1.330;2023-09-18T11:16:33;4.68;;;2.75;;
48795;SDS011;34607;48.520;-1.330;2023-09-18T11:19:16;4.63;;;2.20;;
48795;SDS011;34607;48.520;-1.330;2023-09-18T11:21:44;4.88;;;2.45;;
48795;SDS011;34607;48.520;-1.330;2023-09-18T11:24:16;3.35;;;2.20;;
48795;SDS011;34607;48.520;-1.330;2023-09-18T11:26:44;4.25;;;2.65;;
48795;SDS011;34607;48.520;-1.330;2023-09-18T11:29:14;3.03;;;2.05;;
48795;SDS011;34607;48.520;-1.330;2023-09-18T11:31:43;2.63;;;1.85;;
48795;SDS011;34607;48.520;-1.330;2023-09-18T11:34:20;4.13;;;2.40;;
48795;SDS011;34607;48.520;-1.330;2023-09-18T11:36:49;4.78;;;2.42;;
48795;SDS011;34607;48.520;-1.330;2023-09-18T11:39:32;2.53;;;1.58;;
48795;SDS011;34607;48.520;-1.330;2023-09-18T11:42:11;4.47;;;2.17;;
48795;SDS011;34607;48.520;-1.330;2023-09-18T11:44:39;6.18;;;2.05;;
48795;SDS011;34607;48.520;-1.330;2023-09-18T11:47:12;4.22;;;2.08;;
48795;SDS011;34607;48.520;-1.330;2023-09-18T11:49:47;4.68;;;1.55;;
48795;SDS011;34607;48.520;-1.330;2023-09-18T11:52:18;2.50;;;1.80;;
48795;SDS011;34607;48.520;-1.330;2023-09-18T11:54:45;3.60;;;1.70;;
48795;SDS011;34607;48.520;-1.330;2023-09-18T11:57:13;4.80;;;1.92;;
48795;SDS011;34607;48.520;-1.330;2023-09-18T11:59:41;2.55;;;1.52;;
48795;SDS011;34607;48.520;-1.330;2023-09-18T12:02:11;3.42;;;1.60;;
48795;SDS011;34607;48.520;-1.330;2023-09-18T12:04:47;2.70;;;1.60;;
48795;SDS011;34607;48.520;-1.330;2023-09-18T12:07:14;2.05;;;1.42;;
48795;SDS011;34607;48.520;-1.330;2023-09-18T12:09:41;2.67;;;1.70;;
48795;SDS011;34607;48.520;-1.330;2023-09-18T12:12:09;4.13;;;1.83;;
48795;SDS011;34607;48.520;-1.330;2023-09-18T12:14:39;4.18;;;2.08;;
48795;SDS011;34607;48.520;-1.330;2023-09-18T12:17:07;3.60;;;1.80;;
48795;SDS011;34607;48.520;-1.330;2023-09-18T12:19:34;8.80;;;2.22;;
48795;SDS011;34607;48.520;-1.330;2023-09-18T12:22:03;3.88;;;2.00;;
48795;SDS011;34607;48.520;-1.330;2023-09-18T12:24:30;6.22;;;2.70;;
48795;SDS011;34607;48.520;-1.330;2023-09-18T12:26:57;5.32;;;2.85;;
48795;SDS011;34607;48.520;-1.330;2023-09-18T12:29:25;4.43;;;2.17;;
48795;SDS011;34607;48.520;-1.330;2023-09-18T12:31:52;2.80;;;1.83;;
48795;SDS011;34607;48.520;-1.330;2023-09-18T12:34:20;2.58;;;1.70;;
48795;SDS011;34607;48.520;-1.330;2023-09-18T12:36:48;5.60;;;2.20;;
48795;SDS011;34607;48.520;-1.330;2023-09-18T12:39:18;3.65;;;2.10;;
48795;SDS011;34607;48.520;-1.330;2023-09-18T12:41:47;2.90;;;1.60;;
48795;SDS011;34607;48.520;-1.330;2023-09-18T12:44:15;4.57;;;2.10;;
48795;SDS011;34607;48.520;-1.330;2023-09-18T12:46:43;1.65;;;1.40;;
48795;SDS011;34607;48.520;-1.330;2023-09-18T12:49:15;1.90;;;1.40;;
48795;SDS011;34607;48.520;-1.330;2023-09-18T12:51:43;2.65;;;1.92;;
48795;SDS011;34607;48.520;-1.330;2023-09-18T12:54:11;1.77;;;1.67;;
48795;SDS011;34607;48.520;-1.330;2023-09-18T12:56:43;2.13;;;1.75;;
48795;SDS011;34607;48.520;-1.330;2023-09-18T12:59:10;5.10;;;2.63;;
48795;SDS011;34607;48.520;-1.330;2023-09-18T13:01:38;5.20;;;2.35;;
48795;SDS011;34607;48.520;-1.330;2023-09-18T13:04:07;6.32;;;2.40;;
48795;SDS011;34607;48.520;-1.330;2023-09-18T13:06:38;7.18;;;2.55;;
48795;SDS011;34607;48.520;-1.330;2023-09-18T13:09:15;8.95;;;2.60;;
48795;SDS011;34607;48.520;-1.330;2023-09-18T13:11:56;7.10;;;3.35;;
48795;SDS011;34607;48.520;-1.330;2023-09-18T13:14:24;7.68;;;3.55;;
48795;SDS011;34607;48.520;-1.330;2023-09-18T13:16:52;8.40;;;3.72;;
48795;SDS011;34607;48.520;-1.330;2023-09-18T13:19:19;11.73;;;3.20;;
48795;SDS011;34607;48.520;-1.330;2023-09-18T13:21:47;14.07;;;4.93;;
48795;SDS011;34607;48.520;-1.330;2023-09-18T13:24:24;17.38;;;4.38;;
48795;SDS011;34607;48.520;-1.330;2023-09-18T13:26:52;12.73;;;4.30;;
48795;SDS011;34607;48.520;-1.330;2023-09-18T13:29:21;16.85;;;6.25;;
48795;SDS011;34607;48.520;-1.330;2023-09-18T13:31:49;20.25;;;6.32;;
48795;SDS011;34607;48.520;-1.330;2023-09-18T13:34:17;14.25;;;3.85;;
48795;SDS011;34607;48.520;-1.330;2023-09-18T13:36:44;16.23;;;4.85;;
48795;SDS011;34607;48.520;-1.330;2023-09-18T13:39:12;16.02;;;4.88;;
48795;SDS011;34607;48.520;-1.330;2023-09-18T13:41:42;13.48;;;4.25;;
48795;SDS011;34607;48.520;-1.330;2023-09-18T13:44:09;12.20;;;3.83;;
48795;SDS011;34607;48.520;-1.330;2023-09-18T13:46:38;14.30;;;3.42;;
48795;SDS011;34607;48.520;-1.330;2023-09-18T13:49:06;12.57;;;4.15;;
48795;SDS011;34607;48.520;-1.330;2023-09-18T13:51:33;16.48;;;4.25;;
48795;SDS011;34607;48.520;-1.330;2023-09-18T13:54:00;12.50;;;3.50;;
48795;SDS011;34607;48.520;-1.330;2023-09-18T13:56:29;15.35;;;3.63;;
48795;SDS011;34607;48.520;-1.330;2023-09-18T13:58:56;12.75;;;4.22;;
48795;SDS011;34607;48.520;-1.330;2023-09-18T14:01:23;11.38;;;3.55;;
48795;SDS011;34607;48.520;-1.330;2023-09-18T14:03:53;13.60;;;4.03;;
48795;SDS011;34607;48.520;-1.330;2023-09-18T14:06:20;16.88;;;3.83;;
48795;SDS011;34607;48.520;-1.330;2023-09-18T14:08:48;12.43;;;3.75;;
48795;SDS011;34607;48.520;-1.330;2023-09-18T14:11:15;14.90;;;4.20;;
48795;SDS011;34607;48.520;-1.330;2023-09-18T14:13:43;16.30;;;4.00;;
48795;SDS011;34607;48.520;-1.330;2023-09-18T14:16:10;14.88;;;3.42;;
48795;SDS011;34607;48.520;-1.330;2023-09-18T14:18:39;15.75;;;3.58;;
48795;SDS011;34607;48.520;-1.330;2023-09-18T14:21:09;13.65;;;4.40;;
48795;SDS011;34607;48.520;-1.330;2023-09-18T14:23:36;17.73;;;4.45;;
48795;SDS011;34607;48.520;-1.330;2023-09-18T14:26:03;17.73;;;4.18;;
48795;SDS011;34607;48.520;-1.330;2023-09-18T14:28:30;18.75;;;4.32;;
48795;SDS011;34607;48.520;-1.330;2023-09-18T14:30:58;24.00;;;4.43;;
48795;SDS011;34607;48.520;-1.330;2023-09-18T14:33:25;12.60;;;3.38;;
48795;SDS011;34607;48.520;-1.330;2023-09-18T14:35:52;19.25;;;4.10;;
48795;SDS011;34607;48.520;-1.330;2023-09-18T14:38:21;17.50;;;4.88;;
48795;SDS011;34607;48.520;-1.330;2023-09-18T14:40:48;10.57;;;3.22;;
48795;SDS011;34607;48.520;-1.330;2023-09-18T14:43:15;13.52;;;3.58;;
48795;SDS011;34607;48.520;-1.330;2023-09-18T14:45:42;14.98;;;3.65;;
48795;SDS011;34607;48.520;-1.330;2023-09-18T14:48:10;16.58;;;3.72;;
48795;SDS011;34607;48.520;-1.330;2023-09-18T14:50:37;13.75;;;3.95;;
48795;SDS011;34607;48.520;-1.330;2023-09-18T14:53:04;14.82;;;3.42;;
48795;SDS011;34607;48.520;-1.330;2023-09-18T14:55:34;11.85;;;3.33;;
48795;SDS011;34607;48.520;-1.330;2023-09-18T14:58:01;16.85;;;3.15;;
48795;SDS011;34607;48.520;-1.330;2023-09-18T15:00:28;22.83;;;4.43;;
48795;SDS011;34607;48.520;-1.330;2023-09-18T15:02:55;11.35;;;2.50;;
48795;SDS011;34607;48.520;-1.330;2023-09-18T15:05:25;8.35;;;3.05;;
48795;SDS011;34607;48.520;-1.330;2023-09-18T15:07:52;10.65;;;3.33;;
48795;SDS011;34607;48.520;-1.330;2023-09-18T15:10:19;11.55;;;3.33;;
48795;SDS011;34607;48.520;-1.330;2023-09-18T15:12:47;14.13;;;4.25;;
48795;SDS011;34607;48.520;-1.330;2023-09-18T15:15:14;14.13;;;3.40;;
48795;SDS011;34607;48.520;-1.330;2023-09-18T15:17:41;13.18;;;2.75;;
48795;SDS011;34607;48.520;-1.330;2023-09-18T15:20:08;11.98;;;2.95;;
48795;SDS011;34607;48.520;-1.330;2023-09-18T15:22:37;14.38;;;2.83;;
48795;SDS011;34607;48.520;-1.330;2023-09-18T15:25:05;11.30;;;3.45;;
48795;SDS011;34607;48.520;-1.330;2023-09-18T15:27:33;9.30;;;2.72;;
48795;SDS011;34607;48.520;-1.330;2023-09-18T15:30:02;17.42;;;3.08;;
48795;SDS011;34607;48.520;-1.330;2023-09-18T15:32:30;12.48;;;3.50;;
48795;SDS011;34607;48.520;-1.330;2023-09-18T15:35:11;11.38;;;2.72;;
48795;SDS011;34607;48.520;-1.330;2023-09-18T15:37:39;10.02;;;2.28;;
48795;SDS011;34607;48.520;-1.330;2023-09-18T15:40:07;10.88;;;2.75;;
48795;SDS011;34607;48.520;-1.330;2023-09-18T15:42:36;12.27;;;3.30;;
48795;SDS011;34607;48.520;-1.330;2023-09-18T15:45:06;11.35;;;3.47;;
48795;SDS011;34607;48.520;-1.330;2023-09-18T15:47:36;7.60;;;2.97;;
48795;SDS011;34607;48.520;-1.330;2023-09-18T15:50:04;9.82;;;3.30;;
48795;SDS011;34607;48.520;-1.330;2023-09-18T15:52:31;7.82;;;3.00;;
48795;SDS011;34607;48.520;-1.330;2023-09-18T15:54:58;9.35;;;3.05;;
48795;SDS011;34607;48.520;-1.330;2023-09-18T15:57:26;11.32;;;2.65;;
48795;SDS011;34607;48.520;-1.330;2023-09-18T15:59:53;11.48;;;3.10;;
48795;SDS011;34607;48.520;-1.330;2023-09-18T16:02:22;11.80;;;3.70;;
48795;SDS011;34607;48.520;-1.330;2023-09-18T16:04:50;6.03;;;2.40;;
48795;SDS011;34607;48.520;-1.330;2023-09-18T16:07:18;9.77;;;2.63;;
48795;SDS011;34607;48.520;-1.330;2023-09-18T16:09:45;12.15;;;2.75;;
48795;SDS011;34607;48.520;-1.330;2023-09-18T16:12:12;10.40;;;2.33;;
48795;SDS011;34607;48.520;-1.330;2023-09-18T16:14:39;8.93;;;2.78;;
48795;SDS011;34607;48.520;-1.330;2023-09-18T16:17:06;9.70;;;3.40;;
48795;SDS011;34607;48.520;-1.330;2023-09-18T16:19:35;11.25;;;2.63;;
48795;SDS011;34607;48.520;-1.330;2023-09-18T16:22:02;7.40;;;2.45;;
48795;SDS011;34607;48.520;-1.330;2023-09-18T16:24:30;6.68;;;3.53;;
48795;SDS011;34607;48.520;-1.330;2023-09-18T16:26:58;10.57;;;2.80;;
48795;SDS011;34607;48.520;-1.330;2023-09-18T16:29:25;11.88;;;2.78;;
48795;SDS011;34607;48.520;-1.330;2023-09-18T16:31:53;8.73;;;2.67;;
48795;SDS011;34607;48.520;-1.330;2023-09-18T16:34:20;5.55;;;2.28;;
48795;SDS011;34607;48.520;-1.330;2023-09-18T16:36:48;9.57;;;2.97;;
48795;SDS011;34607;48.520;-1.330;2023-09-18T16:39:15;10.20;;;2.80;;
48795;SDS011;34607;48.520;-1.330;2023-09-18T16:41:42;10.57;;;2.95;;
48795;SDS011;34607;48.520;-1.330;2023-09-18T16:44:10;10.95;;;2.88;;
48795;SDS011;34607;48.520;-1.330;2023-09-18T16:46:37;9.45;;;3.08;;
48795;SDS011;34607;48.520;-1.330;2023-09-18T16:49:04;8.98;;;2.45;;
48795;SDS011;34607;48.520;-1.330;2023-09-18T16:51:33;7.28;;;2.53;;
48795;SDS011;34607;48.520;-1.330;2023-09-18T16:54:02;7.75;;;2.67;;
48795;SDS011;34607;48.520;-1.330;2023-09-18T16:56:29;9.55;;;3.25;;
48795;SDS011;34607;48.520;-1.330;2023-09-18T16:58:56;9.57;;;2.40;;
48795;SDS011;34607;48.520;-1.330;2023-09-18T17:01:24;12.40;;;2.97;;
48795;SDS011;34607;48.520;-1.330;2023-09-18T17:03:51;7.35;;;2.53;;
48795;SDS011;34607;48.520;-1.330;2023-09-18T17:06:18;10.95;;;2.58;;
48795;SDS011;34607;48.520;-1.330;2023-09-18T17:08:45;9.50;;;3.08;;
48795;SDS011;34607;48.520;-1.330;2023-09-18T17:11:15;10.25;;;3.25;;
48795;SDS011;34607;48.520;-1.330;2023-09-18T17:13:43;10.65;;;3.03;;
48795;SDS011;34607;48.520;-1.330;2023-09-18T17:16:10;7.82;;;2.55;;
48795;SDS011;34607;48.520;-1.330;2023-09-18T17:18:38;8.23;;;2.13;;
48795;SDS011;34607;48.520;-1.330;2023-09-18T17:21:07;9.63;;;2.90;;
48795;SDS011;34607;48.520;-1.330;2023-09-18T17:23:34;7.18;;;2.40;;
48795;SDS011;34607;48.520;-1.330;2023-09-18T17:26:01;7.25;;;2.72;;
48795;SDS011;34607;48.520;-1.330;2023-09-18T17:28:30;9.88;;;3.20;;
48795;SDS011;34607;48.520;-1.330;2023-09-18T17:30:58;11.05;;;3.25;;
48795;SDS011;34607;48.520;-1.330;2023-09-18T17:33:25;9.40;;;3.28;;
48795;SDS011;34607;48.520;-1.330;2023-09-18T17:35:52;11.52;;;2.63;;
48795;SDS011;34607;48.520;-1.330;2023-09-18T17:38:19;12.63;;;2.58;;
48795;SDS011;34607;48.520;-1.330;2023-09-18T17:40:46;11.45;;;2.58;;
48795;SDS011;34607;48.520;-1.330;2023-09-18T17:43:13;11.45;;;3.70;;
48795;SDS011;34607;48.520;-1.330;2023-09-18T17:45:42;9.93;;;2.42;;
48795;SDS011;34607;48.520;-1.330;2023-09-18T17:48:09;9.93;;;2.35;;
48795;SDS011;34607;48.520;-1.330;2023-09-18T17:50:37;10.30;;;2.08;;
48795;SDS011;34607;48.520;-1.330;2023-09-18T17:53:04;6.40;;;1.50;;
48795;SDS011;34607;48.520;-1.330;2023-09-18T17:55:31;9.07;;;1.75;;
48795;SDS011;34607;48.520;-1.330;2023-09-18T17:57:59;8.63;;;2.75;;
48795;SDS011;34607;48.520;-1.330;2023-09-18T18:00:26;4.75;;;1.40;;
48795;SDS011;34607;48.520;-1.330;2023-09-18T18:02:54;5.85;;;1.40;;
48795;SDS011;34607;48.520;-1.330;2023-09-18T18:05:21;10.07;;;2.08;;
48795;SDS011;34607;48.520;-1.330;2023-09-18T18:07:49;8.77;;;1.40;;
48795;SDS011;34607;48.520;-1.330;2023-09-18T18:10:17;7.50;;;1.55;;
48795;SDS011;34607;48.520;-1.330;2023-09-18T18:12:44;9.00;;;1.90;;
48795;SDS011;34607;48.520;-1.330;2023-09-18T18:15:11;11.25;;;1.95;;
48795;SDS011;34607;48.520;-1.330;2023-09-18T18:17:39;8.93;;;2.00;;
48795;SDS011;34607;48.520;-1.330;2023-09-18T18:20:08;7.50;;;1.95;;
48795;SDS011;34607;48.520;-1.330;2023-09-18T18:22:35;4.85;;;1.48;;
48795;SDS011;34607;48.520;-1.330;2023-09-18T18:25:02;7.63;;;1.90;;
48795;SDS011;34607;48.520;-1.330;2023-09-18T18:27:29;5.50;;;1.40;;
48795;SDS011;34607;48.520;-1.330;2023-09-18T18:29:59;8.43;;;1.70;;
48795;SDS011;34607;48.520;-1.330;2023-09-18T18:32:26;4.55;;;1.80;;
48795;SDS011;34607;48.520;-1.330;2023-09-18T18:34:54;11.55;;;1.90;;
48795;SDS011;34607;48.520;-1.330;2023-09-18T18:37:22;5.32;;;1.83;;
48795;SDS011;34607;48.520;-1.330;2023-09-18T18:39:50;5.20;;;1.52;;
48795;SDS011;34607;48.520;-1.330;2023-09-18T18:42:17;9.05;;;1.95;;
48795;SDS011;34607;48.520;-1.330;2023-09-18T18:44:44;5.80;;;1.65;;
48795;SDS011;34607;48.520;-1.330;2023-09-18T18:47:12;6.47;;;1.95;;
48795;SDS011;34607;48.520;-1.330;2023-09-18T18:49:39;7.65;;;1.83;;
48795;SDS011;34607;48.520;-1.330;2023-09-18T18:52:06;6.10;;;1.67;;
48795;SDS011;34607;48.520;-1.330;2023-09-18T18:54:35;8.43;;;1.92;;
48795;SDS011;34607;48.520;-1.330;2023-09-18T18:57:02;7.80;;;1.83;;
48795;SDS011;34607;48.520;-1.330;2023-09-18T18:59:29;8.75;;;2.40;;
48795;SDS011;34607;48.520;-1.330;2023-09-18T19:01:56;8.18;;;2.28;;
48795;SDS011;34607;48.520;-1.330;2023-09-18T19:04:23;10.57;;;2.53;;
48795;SDS011;34607;48.520;-1.330;2023-09-18T19:06:51;9.57;;;1.80;;
48795;SDS011;34607;48.520;-1.330;2023-09-18T19:09:18;10.07;;;1.80;;
48795;SDS011;34607;48.520;-1.330;2023-09-18T19:11:46;8.30;;;2.28;;
48795;SDS011;34607;48.520;-1.330;2023-09-18T19:14:13;8.82;;;1.95;;
48795;SDS011;34607;48.520;-1.330;2023-09-18T19:16:40;10.02;;;1.95;;
48795;SDS011;34607;48.520;-1.330;2023-09-18T19:19:07;10.93;;;2.22;;
48795;SDS011;34607;48.520;-1.330;2023-09-18T19:21:34;9.75;;;2.95;;
48795;SDS011;34607;48.520;-1.330;2023-09-18T19:24:01;7.32;;;2.58;;
48795;SDS011;34607;48.520;-1.330;2023-09-18T19:26:29;8.40;;;2.45;;
48795;SDS011;34607;48.520;-1.330;2023-09-18T19:28:57;9.00;;;2.22;;
48795;SDS011;34607;48.520;-1.330;2023-09-18T19:31:24;11.63;;;2.28;;
48795;SDS011;34607;48.520;-1.330;2023-09-18T19:33:51;10.25;;;2.33;;
48795;SDS011;34607;48.520;-1.330;2023-09-18T19:36:18;9.15;;;1.98;;
48795;SDS011;34607;48.520;-1.330;2023-09-18T19:38:45;7.88;;;2.33;;
48795;SDS011;34607;48.520;-1.330;2023-09-18T19:41:12;11.68;;;2.45;;
48795;SDS011;34607;48.520;-1.330;2023-09-18T19:43:40;9.38;;;2.72;;
48795;SDS011;34607;48.520;-1.330;2023-09-18T19:46:09;8.25;;;1.83;;
48795;SDS011;34607;48.520;-1.330;2023-09-18T19:48:37;10.73;;;2.72;;
48795;SDS011;34607;48.520;-1.330;2023-09-18T19:51:04;9.80;;;2.58;;
48795;SDS011;34607;48.520;-1.330;2023-09-18T19:53:32;7.65;;;2.10;;
48795;SDS011;34607;48.520;-1.330;2023-09-18T19:55:59;9.73;;;2.75;;
48795;SDS011;34607;48.520;-1.330;2023-09-18T19:58:26;8.65;;;2.47;;
48795;SDS011;34607;48.520;-1.330;2023-09-18T20:00:55;12.27;;;3.05;;
48795;SDS011;34607;48.520;-1.330;2023-09-18T20:03:25;13.57;;;2.65;;
48795;SDS011;34607;48.520;-1.330;2023-09-18T20:05:52;6.85;;;1.88;;
48795;SDS011;34607;48.520;-1.330;2023-09-18T20:08:19;12.02;;;2.60;;
48795;SDS011;34607;48.520;-1.330;2023-09-18T20:10:46;7.45;;;2.22;;
48795;SDS011;34607;48.520;-1.330;2023-09-18T20:13:13;12.35;;;2.85;;
48795;SDS011;34607;48.520;-1.330;2023-09-18T20:15:40;10.50;;;2.55;;
48795;SDS011;34607;48.520;-1.330;2023-09-18T20:18:07;12.50;;;3.88;;
48795;SDS011;34607;48.520;-1.330;2023-09-18T20:20:35;11.48;;;2.40;;
48795;SDS011;34607;48.520;-1.330;2023-09-18T20:23:03;7.43;;;2.30;;
48795;SDS011;34607;48.520;-1.330;2023-09-18T20:25:30;10.35;;;3.00;;
48795;SDS011;34607;48.520;-1.330;2023-09-18T20:27:57;7.93;;;2.17;;
48795;SDS011;34607;48.520;-1.330;2023-09-18T20:30:24;13.20;;;3.17;;
48795;SDS011;34607;48.520;-1.330;2023-09-18T20:32:51;9.95;;;2.40;;
48795;SDS011;34607;48.520;-1.330;2023-09-18T20:35:18;13.48;;;3.78;;
48795;SDS011;34607;48.520;-1.330;2023-09-18T20:37:47;10.35;;;2.38;;
48795;SDS011;34607;48.520;-1.330;2023-09-18T20:40:14;12.75;;;4.05;;
48795;SDS011;34607;48.520;-1.330;2023-09-18T20:42:42;9.65;;;2.33;;
48795;SDS011;34607;48.520;-1.330;2023-09-18T20:45:09;7.57;;;2.17;;
48795;SDS011;34607;48.520;-1.330;2023-09-18T20:47:38;10.32;;;2.72;;
48795;SDS011;34607;48.520;-1.330;2023-09-18T20:50:05;10.77;;;2.83;;
48795;SDS011;34607;48.520;-1.330;2023-09-18T20:52:35;9.02;;;2.38;;
48795;SDS011;34607;48.520;-1.330;2023-09-18T20:55:04;12.95;;;2.85;;
48795;SDS011;34607;48.520;-1.330;2023-09-18T20:57:32;12.25;;;3.08;;
48795;SDS011;34607;48.520;-1.330;2023-09-18T20:59:59;8.10;;;2.75;;
48795;SDS011;34607;48.520;-1.330;2023-09-18T21:02:26;9.60;;;2.50;;
48795;SDS011;34607;48.520;-1.330;2023-09-18T21:04:53;15.57;;;2.85;;
48795;SDS011;34607;48.520;-1.330;2023-09-18T21:07:20;13.02;;;3.63;;
48795;SDS011;34607;48.520;-1.330;2023-09-18T21:09:47;9.95;;;2.75;;
48795;SDS011;34607;48.520;-1.330;2023-09-18T21:12:17;9.27;;;2.78;;
48795;SDS011;34607;48.520;-1.330;2023-09-18T21:14:48;14.00;;;3.45;;
48795;SDS011;34607;48.520;-1.330;2023-09-18T21:17:15;13.75;;;2.80;;
48795;SDS011;34607;48.520;-1.330;2023-09-18T21:19:42;9.90;;;2.75;;
48795;SDS011;34607;48.520;-1.330;2023-09-18T21:22:09;9.38;;;3.13;;
48795;SDS011;34607;48.520;-1.330;2023-09-18T21:24:37;13.57;;;2.63;;
48795;SDS011;34607;48.520;-1.330;2023-09-18T21:27:04;14.85;;;2.70;;
48795;SDS011;34607;48.520;-1.330;2023-09-18T21:29:33;10.00;;;2.40;;
48795;SDS011;34607;48.520;-1.330;2023-09-18T21:32:00;11.55;;;2.97;;
48795;SDS011;34607;48.520;-1.330;2023-09-18T21:34:27;11.23;;;2.40;;
48795;SDS011;34607;48.520;-1.330;2023-09-18T21:36:54;11.45;;;2.88;;
48795;SDS011;34607;48.520;-1.330;2023-09-18T21:39:21;13.43;;;3.50;;
48795;SDS011;34607;48.520;-1.330;2023-09-18T21:41:48;14.63;;;3.20;;
48795;SDS011;34607;48.520;-1.330;2023-09-18T21:44:15;12.82;;;3.15;;
48795;SDS011;34607;48.520;-1.330;2023-09-18T21:46:43;11.88;;;3.28;;
48795;SDS011;34607;48.520;-1.330;2023-09-18T21:49:11;14.27;;;2.88;;